Time;durP1;ratioP1;P1;durP2;ratioP2;P2;SDS_P1;SDS_P2;PMS_P1;PMS_P2;Temp;Humidity;BMP_temperature;BMP_pressure;BME280_temperature;BME280_humidity;BME280_pressure;Samples;Min_cycle;Max_cycle;Signal;HPM_P1;HPM_P2
2022/03/31 00:00:40;;;;;;;35.00;22.63;;;21.70;99.90;;;;;;5013994;28;20056;-53
2022/03/31 00:03:08;;;;;;;34.15;23.55;;;21.70;99.90;;;;;;5013771;28;20093;-53
2022/03/31 00:05:34;;;;;;;31.30;21.77;;;21.60;99.90;;;;;;5013078;28;20076;-53
2022/03/31 00:08:06;;;;;;;32.13;21.95;;;21.60;99.90;;;;;;5012894;28;20026;-53
2022/03/31 00:10:52;;;;;;;31.52;21.67;;;21.70;99.90;;;;;;5013496;28;20072;-54
2022/03/31 00:13:24;;;;;;;34.63;21.90;;;21.60;99.90;;;;;;5013382;28;20045;-53
2022/03/31 00:15:53;;;;;;;35.33;22.73;;;21.60;99.90;;;;;;5012083;28;20136;-53
2022/03/31 00:18:19;;;;;;;31.90;22.17;;;21.60;99.90;;;;;;5013396;28;20109;-53
2022/03/31 00:20:45;;;;;;;34.53;20.02;;;21.60;99.90;;;;;;5013236;28;20097;-53
2022/03/31 00:23:11;;;;;;;32.65;21.38;;;21.60;99.90;;;;;;5013345;28;20072;-53
2022/03/31 00:25:37;;;;;;;32.83;22.70;;;21.60;99.90;;;;;;5013131;28;20034;-52
2022/03/31 00:28:03;;;;;;;31.35;21.30;;;21.60;99.90;;;;;;5013037;28;20018;-53
2022/03/31 00:30:30;;;;;;;30.95;21.83;;;21.60;99.90;;;;;;5013122;28;20062;-53
2022/03/31 00:32:57;;;;;;;33.13;22.17;;;21.60;99.90;;;;;;5013350;28;20378;-53
2022/03/31 00:35:23;;;;;;;31.52;22.42;;;21.60;99.90;;;;;;5012982;28;20042;-52
2022/03/31 00:37:49;;;;;;;30.65;21.50;;;21.60;99.90;;;;;;5013032;28;20033;-52
2022/03/31 00:40:18;;;;;;;33.65;22.15;;;21.50;99.90;;;;;;5012877;28;20022;-53
2022/03/31 00:42:54;;;;;;;29.70;21.38;;;21.50;99.90;;;;;;5012881;28;20018;-53
2022/03/31 00:45:25;;;;;;;33.40;22.33;;;21.50;99.90;;;;;;5012733;28;20037;-52
2022/03/31 00:47:52;;;;;;;29.58;21.90;;;21.50;99.90;;;;;;5012858;28;20026;-53
2022/03/31 00:50:18;;;;;;;34.28;21.15;;;21.50;99.90;;;;;;5011489;28;20221;-53
2022/03/31 00:52:45;;;;;;;32.03;21.70;;;21.60;99.90;;;;;;4995024;28;20022;-53
2022/03/31 00:55:13;;;;;;;31.13;22.00;;;21.50;99.90;;;;;;5012621;28;20489;-52
2022/03/31 00:57:41;;;;;;;34.67;24.35;;;21.50;99.90;;;;;;5012700;28;20116;-53
2022/03/31 01:00:09;;;;;;;30.63;20.73;;;21.50;99.90;;;;;;5012887;28;20538;-53
2022/03/31 01:02:38;;;;;;;28.52;20.23;;;21.50;99.90;;;;;;5011411;28;20052;-53
2022/03/31 01:05:05;;;;;;;34.42;21.65;;;21.50;99.90;;;;;;5012657;28;20029;-51
2022/03/31 01:07:34;;;;;;;32.22;22.33;;;21.50;99.90;;;;;;5011106;28;20084;-51
2022/03/31 01:10:00;;;;;;;31.25;20.98;;;21.50;99.90;;;;;;5012532;28;20034;-51
2022/03/31 01:12:25;;;;;;;31.15;21.08;;;21.50;99.90;;;;;;5011085;28;20026;-52
2022/03/31 01:15:06;;;;;;;31.20;20.40;;;21.50;99.90;;;;;;5012194;28;20053;-52
2022/03/31 01:17:35;;;;;;;28.15;20.80;;;21.50;99.90;;;;;;5011891;28;20034;-52
2022/03/31 01:20:03;;;;;;;30.52;21.48;;;21.50;99.90;;;;;;5011070;28;20036;-52
2022/03/31 01:22:31;;;;;;;29.42;19.95;;;21.50;99.90;;;;;;5011023;28;20481;-51
2022/03/31 01:25:02;;;;;;;26.38;20.05;;;21.40;99.90;;;;;;5012457;28;20026;-51
2022/03/31 01:27:28;;;;;;;28.45;19.42;;;21.50;99.90;;;;;;5011111;28;20022;-52
2022/03/31 01:29:54;;;;;;;28.90;20.33;;;21.40;99.90;;;;;;5012066;28;20112;-52
2022/03/31 01:32:20;;;;;;;32.35;21.20;;;21.40;99.90;;;;;;5012009;28;20176;-52
2022/03/31 01:34:46;;;;;;;31.73;19.42;;;21.40;99.90;;;;;;5011830;28;20550;-52
2022/03/31 01:37:15;;;;;;;31.05;19.48;;;21.40;99.90;;;;;;5011792;28;20026;-52
2022/03/31 01:39:41;;;;;;;29.63;19.27;;;21.40;99.90;;;;;;5011909;28;20429;-53
2022/03/31 01:42:08;;;;;;;27.95;18.25;;;21.40;99.90;;;;;;5011825;28;20080;-54
2022/03/31 01:44:34;;;;;;;25.50;19.38;;;21.40;99.90;;;;;;5011835;28;20034;-53
2022/03/31 01:47:00;;;;;;;26.60;18.42;;;21.40;99.90;;;;;;5011811;28;20030;-52
2022/03/31 01:49:26;;;;;;;28.85;18.45;;;21.40;99.90;;;;;;5010372;28;20133;-52
2022/03/31 01:51:52;;;;;;;30.92;18.13;;;21.40;99.90;;;;;;5011748;28;20018;-52
2022/03/31 01:54:18;;;;;;;25.50;17.90;;;21.40;99.90;;;;;;5011863;28;20042;-53
2022/03/31 01:56:44;;;;;;;22.77;17.58;;;21.40;99.90;;;;;;5011623;28;20024;-53
2022/03/31 01:59:15;;;;;;;26.08;18.70;;;21.40;99.90;;;;;;5011731;28;20030;-52
2022/03/31 02:01:41;;;;;;;28.08;17.40;;;21.30;99.90;;;;;;5010214;28;20042;-52
2022/03/31 02:04:06;;;;;;;26.38;17.77;;;21.40;99.90;;;;;;5011411;28;20033;-52
2022/03/31 02:06:32;;;;;;;26.17;17.52;;;21.30;99.90;;;;;;5011850;28;20425;-53
2022/03/31 02:08:58;;;;;;;23.60;17.15;;;21.30;99.90;;;;;;5011581;28;20033;-53
2022/03/31 02:11:24;;;;;;;23.88;15.98;;;21.30;99.90;;;;;;5011507;28;20028;-54
2022/03/31 02:13:50;;;;;;;22.95;16.50;;;21.40;99.90;;;;;;5010229;28;20080;-53
2022/03/31 02:16:15;;;;;;;23.55;17.20;;;21.30;99.90;;;;;;5011515;28;20025;-53
2022/03/31 02:18:41;;;;;;;21.38;15.45;;;21.30;99.90;;;;;;5011545;28;20026;-52
2022/03/31 02:21:07;;;;;;;23.67;17.25;;;21.30;99.90;;;;;;5011419;28;20026;-53
2022/03/31 02:23:33;;;;;;;21.63;15.20;;;21.30;99.90;;;;;;5011559;28;20030;-54
2022/03/31 02:25:59;;;;;;;19.30;14.75;;;21.30;99.90;;;;;;5011270;28;20022;-53
2022/03/31 02:28:24;;;;;;;22.73;14.82;;;21.30;99.90;;;;;;5011259;28;20099;-53
2022/03/31 02:30:50;;;;;;;21.02;13.25;;;21.30;99.90;;;;;;5014388;28;20022;-52
2022/03/31 02:33:16;;;;;;;19.48;14.02;;;21.30;99.90;;;;;;5015288;28;20117;-53
2022/03/31 02:35:42;;;;;;;19.15;14.13;;;21.30;99.90;;;;;;5015258;28;20056;-54
2022/03/31 02:38:07;;;;;;;22.75;13.75;;;21.30;99.90;;;;;;5015249;28;20037;-54
2022/03/31 02:40:33;;;;;;;18.58;13.70;;;21.30;99.90;;;;;;5015377;28;20389;-53
2022/03/31 02:42:59;;;;;;;19.83;13.25;;;21.30;99.90;;;;;;5015220;28;20030;-53
2022/03/31 02:45:25;;;;;;;21.13;13.57;;;21.30;99.90;;;;;;5015215;28;20033;-53
2022/03/31 02:47:51;;;;;;;17.67;13.10;;;21.30;99.90;;;;;;5015129;28;20357;-53
2022/03/31 02:50:17;;;;;;;19.70;13.27;;;21.20;99.90;;;;;;5015112;28;20127;-53
2022/03/31 02:55:30;;;;;;;15.40;11.33;;;21.20;99.90;;;;;;5014943;28;20052;-53
2022/03/31 02:58:01;;;;;;;14.95;11.35;;;21.20;99.90;;;;;;5014911;28;20263;-53
2022/03/31 03:00:30;;;;;;;17.08;12.02;;;21.20;99.90;;;;;;5014245;28;20049;-52
2022/03/31 03:02:57;;;;;;;19.08;12.77;;;21.20;99.90;;;;;;5014836;28;20469;-52
2022/03/31 03:05:23;;;;;;;18.35;12.18;;;21.20;99.90;;;;;;5014768;28;20076;-52
2022/03/31 03:07:49;;;;;;;15.82;11.00;;;21.20;99.90;;;;;;5014701;28;20390;-52
2022/03/31 03:10:15;;;;;;;15.95;10.73;;;21.20;99.90;;;;;;5014714;28;20488;-52
2022/03/31 03:12:41;;;;;;;17.40;11.02;;;21.20;99.90;;;;;;5014823;28;20022;-53
2022/03/31 03:15:09;;;;;;;17.42;10.45;;;21.10;99.90;;;;;;5015142;28;20061;-52
2022/03/31 03:17:39;;;;;;;17.08;11.05;;;21.10;99.90;;;;;;5014855;28;20026;-53
2022/03/31 03:20:06;;;;;;;14.65;10.63;;;21.10;99.90;;;;;;5014707;28;20076;-53
2022/03/31 03:22:32;;;;;;;14.00;11.05;;;21.10;99.90;;;;;;5014447;28;20025;-51
2022/03/31 03:24:59;;;;;;;16.00;11.15;;;21.10;99.90;;;;;;5014395;28;20034;-51
2022/03/31 03:27:25;;;;;;;15.05;10.30;;;21.10;99.90;;;;;;5014337;28;20033;-51
2022/03/31 03:29:51;;;;;;;17.33;10.77;;;21.10;99.90;;;;;;5014498;28;20033;-50
2022/03/31 03:32:17;;;;;;;16.45;11.00;;;21.20;99.90;;;;;;5014325;28;20022;-50
2022/03/31 03:34:43;;;;;;;14.05;9.75;;;21.10;99.90;;;;;;5014072;28;20053;-51
2022/03/31 03:37:09;;;;;;;13.88;10.00;;;21.10;99.90;;;;;;5014413;28;20026;-50
2022/03/31 03:39:35;;;;;;;14.98;10.85;;;21.10;99.90;;;;;;5014296;28;20064;-50
2022/03/31 03:42:02;;;;;;;13.57;9.38;;;21.10;99.90;;;;;;5013953;28;20371;-52
2022/03/31 03:44:27;;;;;;;14.35;9.80;;;21.10;99.90;;;;;;5014034;28;20481;-52
2022/03/31 03:46:53;;;;;;;14.23;9.50;;;21.10;99.90;;;;;;5014017;28;20022;-53
2022/03/31 03:49:19;;;;;;;15.43;10.75;;;21.10;99.90;;;;;;5013987;28;20056;-52
2022/03/31 03:51:45;;;;;;;19.35;10.30;;;21.10;99.90;;;;;;5013958;28;20109;-51
2022/03/31 03:54:11;;;;;;;15.07;9.90;;;21.10;99.90;;;;;;5013797;28;20389;-54
2022/03/31 03:56:38;;;;;;;14.90;9.40;;;21.00;99.90;;;;;;5014148;28;20022;-52
2022/03/31 03:59:04;;;;;;;14.65;9.40;;;21.00;99.90;;;;;;5013958;28;20030;-55
2022/03/31 04:01:30;;;;;;;15.70;9.68;;;21.00;99.90;;;;;;5014554;28;20050;-53
2022/03/31 04:03:57;;;;;;;14.38;9.45;;;21.00;99.90;;;;;;5013804;28;20022;-52
2022/03/31 04:06:23;;;;;;;16.83;10.23;;;21.00;99.90;;;;;;5013647;28;20050;-52
2022/03/31 04:08:49;;;;;;;14.05;9.50;;;21.00;99.90;;;;;;5013638;28;20072;-53
2022/03/31 04:11:15;;;;;;;14.63;9.73;;;21.00;99.90;;;;;;5013543;28;20022;-52
2022/03/31 04:13:40;;;;;;;12.05;8.65;;;21.00;99.90;;;;;;5013665;28;20033;-52
2022/03/31 04:16:06;;;;;;;13.95;9.60;;;21.00;99.90;;;;;;5013542;28;20032;-52
2022/03/31 04:18:32;;;;;;;14.25;9.73;;;21.00;99.90;;;;;;5013584;28;20147;-52
2022/03/31 04:21:01;;;;;;;14.50;9.57;;;21.00;99.90;;;;;;5013479;28;20117;-52
2022/03/31 04:23:27;;;;;;;13.30;9.50;;;21.00;99.90;;;;;;5013359;28;20092;-52
2022/03/31 04:25:53;;;;;;;16.90;9.98;;;21.00;99.90;;;;;;5012058;28;20451;-52
2022/03/31 04:28:19;;;;;;;13.15;9.30;;;21.00;99.90;;;;;;5013274;28;20089;-52
2022/03/31 04:30:44;;;;;;;16.17;9.85;;;21.00;99.90;;;;;;5013238;28;20010;-50
2022/03/31 04:33:10;;;;;;;16.05;10.57;;;21.00;99.90;;;;;;5013331;28;20485;-50
2022/03/31 04:35:36;;;;;;;14.52;9.65;;;21.00;99.90;;;;;;5013003;28;20038;-50
2022/03/31 04:38:03;;;;;;;18.08;9.73;;;21.00;99.90;;;;;;5013069;28;20030;-52
2022/03/31 04:40:29;;;;;;;14.13;9.07;;;20.90;99.90;;;;;;5013162;28;20026;-51
2022/03/31 04:42:55;;;;;;;16.70;9.57;;;21.00;99.90;;;;;;5012996;28;20025;-52
2022/03/31 04:45:21;;;;;;;13.70;9.82;;;20.90;99.90;;;;;;5012911;28;20025;-51
2022/03/31 04:47:47;;;;;;;18.60;10.15;;;20.90;99.90;;;;;;5012847;28;20466;-52
2022/03/31 04:50:14;;;;;;;15.43;9.73;;;20.90;99.90;;;;;;5012990;28;20543;-51
2022/03/31 04:52:41;;;;;;;18.63;9.93;;;20.90;99.90;;;;;;5012375;28;20080;-51
2022/03/31 04:55:07;;;;;;;14.40;9.38;;;20.90;99.90;;;;;;5012676;28;20062;-51
2022/03/31 04:57:33;;;;;;;14.18;8.93;;;20.90;99.90;;;;;;5012726;28;20026;-51
2022/03/31 04:59:59;;;;;;;15.77;9.55;;;20.90;99.90;;;;;;5012546;28;20474;-51
2022/03/31 05:02:25;;;;;;;14.50;9.13;;;20.90;99.90;;;;;;5012464;28;20040;-53
2022/03/31 05:04:51;;;;;;;13.30;9.30;;;20.90;99.90;;;;;;5012527;28;20500;-53
2022/03/31 05:07:17;;;;;;;21.85;10.02;;;20.90;99.90;;;;;;5012455;28;20021;-52
2022/03/31 05:09:44;;;;;;;17.42;9.30;;;20.80;99.90;;;;;;5012670;28;20028;-54
2022/03/31 05:12:12;;;;;;;13.95;9.30;;;20.90;99.90;;;;;;5012443;28;20029;-53
2022/03/31 05:14:39;;;;;;;12.60;9.18;;;20.80;99.90;;;;;;5011119;28;20501;-53
2022/03/31 05:17:06;;;;;;;16.67;9.38;;;20.80;99.90;;;;;;5012318;28;20061;-54
2022/03/31 05:19:33;;;;;;;13.30;9.07;;;20.80;99.90;;;;;;5012335;28;20449;-54
2022/03/31 05:21:59;;;;;;;12.67;8.03;;;20.80;99.90;;;;;;5012170;28;20072;-53
2022/03/31 05:24:25;;;;;;;14.43;8.55;;;20.90;99.90;;;;;;5012303;28;20291;-53
2022/03/31 05:26:54;;;;;;;13.40;7.63;;;20.80;99.90;;;;;;5012207;28;20092;-54
2022/03/31 05:29:21;;;;;;;12.18;8.73;;;20.80;99.90;;;;;;5012257;28;20088;-54
2022/03/31 05:31:48;;;;;;;10.55;7.63;;;20.80;99.90;;;;;;5012553;28;20029;-54
2022/03/31 05:34:14;;;;;;;12.45;8.38;;;20.80;99.90;;;;;;5012353;28;20375;-54
2022/03/31 05:36:40;;;;;;;11.77;7.72;;;20.80;99.90;;;;;;5012063;28;20022;-53
2022/03/31 05:39:06;;;;;;;16.10;8.75;;;20.80;99.90;;;;;;5012164;28;20029;-53
2022/03/31 05:41:32;;;;;;;13.07;8.23;;;20.80;99.90;;;;;;5011980;28;20355;-53
2022/03/31 05:43:58;;;;;;;14.15;7.55;;;20.80;99.90;;;;;;5011857;28;20026;-53
2022/03/31 05:46:25;;;;;;;13.82;7.70;;;20.80;99.90;;;;;;5010759;28;20026;-53
2022/03/31 05:48:52;;;;;;;13.57;8.00;;;20.80;99.90;;;;;;5011917;28;20045;-52
2022/03/31 05:51:18;;;;;;;10.23;6.90;;;20.80;99.90;;;;;;5011995;28;20022;-52
2022/03/31 05:53:44;;;;;;;12.82;8.30;;;20.80;99.90;;;;;;5012183;28;20454;-52
2022/03/31 05:56:11;;;;;;;11.27;8.27;;;20.80;99.90;;;;;;5011723;28;20041;-52
2022/03/31 05:58:36;;;;;;;12.00;7.65;;;20.70;99.90;;;;;;5011786;28;20101;-52
2022/03/31 06:01:04;;;;;;;11.88;7.85;;;20.70;99.90;;;;;;5011677;28;20085;-53
2022/03/31 06:03:30;;;;;;;13.80;8.13;;;20.70;99.90;;;;;;5011246;28;20443;-53
2022/03/31 06:05:56;;;;;;;14.77;7.97;;;20.70;99.90;;;;;;5011253;28;20033;-53
2022/03/31 06:08:22;;;;;;;11.73;7.72;;;20.70;99.90;;;;;;5011832;28;20030;-53
2022/03/31 06:10:48;;;;;;;14.52;7.68;;;20.70;99.90;;;;;;5011709;28;20030;-53
2022/03/31 06:13:14;;;;;;;13.82;7.68;;;20.80;99.90;;;;;;5011638;28;20036;-52
2022/03/31 06:15:40;;;;;;;11.00;7.22;;;20.70;99.90;;;;;;5011477;28;20545;-53
2022/03/31 06:18:07;;;;;;;14.97;7.53;;;20.70;99.90;;;;;;5011743;28;20026;-53
2022/03/31 06:20:34;;;;;;;12.13;7.57;;;20.70;99.90;;;;;;5011364;28;20065;-52
2022/03/31 06:23:00;;;;;;;11.63;7.10;;;20.70;99.90;;;;;;5011535;28;20018;-53
2022/03/31 06:25:27;;;;;;;12.85;7.53;;;20.70;99.90;;;;;;5011329;28;20022;-53
2022/03/31 06:27:53;;;;;;;14.93;7.50;;;20.70;99.90;;;;;;5010072;28;20026;-53
2022/03/31 06:30:19;;;;;;;11.23;6.90;;;20.70;99.90;;;;;;5011391;28;20122;-51
2022/03/31 06:32:45;;;;;;;10.45;6.97;;;20.70;99.90;;;;;;5011058;28;20101;-50
2022/03/31 06:35:17;;;;;;;11.13;7.20;;;20.70;99.90;;;;;;5011168;28;20042;-50
2022/03/31 06:37:44;;;;;;;13.68;7.35;;;20.70;99.90;;;;;;5011264;28;20026;-52
2022/03/31 06:40:12;;;;;;;13.45;7.55;;;20.70;99.90;;;;;;5011251;28;20497;-52
2022/03/31 06:42:39;;;;;;;12.90;7.15;;;20.70;99.90;;;;;;5011111;28;20026;-51
2022/03/31 06:45:08;;;;;;;11.35;7.40;;;20.70;99.90;;;;;;5011098;28;20052;-53
2022/03/31 06:47:35;;;;;;;11.35;7.22;;;20.70;99.90;;;;;;5009680;28;20021;-52
2022/03/31 06:50:02;;;;;;;10.38;6.60;;;20.70;99.90;;;;;;5011141;28;20092;-52
2022/03/31 06:52:29;;;;;;;10.40;6.53;;;20.70;99.90;;;;;;5011112;28;20079;-51
2022/03/31 06:54:54;;;;;;;10.13;7.05;;;20.70;99.90;;;;;;5011056;28;20746;-52
2022/03/31 06:57:20;;;;;;;9.98;6.55;;;20.70;99.90;;;;;;5011209;28;20026;-52
2022/03/31 06:59:46;;;;;;;10.93;7.13;;;20.70;99.90;;;;;;5010395;28;20030;-52
2022/03/31 07:02:12;;;;;;;10.15;6.50;;;20.70;99.90;;;;;;5011085;28;20061;-52
2022/03/31 07:04:38;;;;;;;12.95;7.15;;;20.70;99.90;;;;;;5010955;28;20032;-52
2022/03/31 07:07:04;;;;;;;12.82;7.32;;;20.70;99.90;;;;;;5010964;28;20022;-52
2022/03/31 07:09:29;;;;;;;12.25;6.82;;;20.70;99.90;;;;;;5010974;28;20076;-52
2022/03/31 07:11:55;;;;;;;12.20;7.63;;;20.80;99.90;;;;;;5009626;28;20113;-52
2022/03/31 07:14:21;;;;;;;12.82;7.68;;;20.70;99.90;;;;;;5009737;28;20042;-52
2022/03/31 07:16:46;;;;;;;11.75;6.68;;;20.70;99.90;;;;;;5013654;28;20084;-52
2022/03/31 07:19:12;;;;;;;13.38;6.75;;;20.70;99.90;;;;;;5014558;28;20084;-53
2022/03/31 07:21:38;;;;;;;12.07;7.13;;;20.70;99.90;;;;;;5014548;28;20026;-53
2022/03/31 07:24:04;;;;;;;11.18;7.70;;;20.70;99.90;;;;;;5014344;28;20025;-52
2022/03/31 07:26:31;;;;;;;13.27;7.55;;;20.70;99.90;;;;;;5014759;28;20030;-52
2022/03/31 07:28:57;;;;;;;10.75;6.95;;;20.70;99.90;;;;;;5014264;28;20118;-52
2022/03/31 07:31:28;;;;;;;10.77;6.75;;;20.70;99.90;;;;;;5014619;28;20117;-53
2022/03/31 07:33:57;;;;;;;14.15;7.88;;;20.70;99.90;;;;;;5014442;28;20022;-53
2022/03/31 07:36:23;;;;;;;12.63;8.02;;;20.70;99.90;;;;;;5014424;28;20030;-54
2022/03/31 07:38:49;;;;;;;11.45;7.38;;;20.70;99.90;;;;;;5014315;28;20026;-53
2022/03/31 07:41:15;;;;;;;14.70;8.27;;;20.70;99.90;;;;;;5014044;28;20026;-53
2022/03/31 07:43:42;;;;;;;13.45;7.90;;;20.70;99.90;;;;;;5013747;28;20466;-52
2022/03/31 07:46:08;;;;;;;11.30;7.28;;;20.70;99.90;;;;;;5013904;28;20029;-52
2022/03/31 07:48:33;;;;;;;12.13;8.18;;;20.70;99.90;;;;;;5012589;28;20021;-52
2022/03/31 07:50:59;;;;;;;11.10;7.00;;;20.70;99.90;;;;;;5013921;28;20385;-52
2022/03/31 07:53:27;;;;;;;15.98;8.35;;;20.70;99.90;;;;;;5014003;28;20029;-53
2022/03/31 07:55:54;;;;;;;12.10;7.60;;;20.70;99.90;;;;;;5014109;28;20029;-52
2022/03/31 07:58:21;;;;;;;11.38;8.02;;;20.70;99.90;;;;;;5013811;28;20026;-52
2022/03/31 08:00:51;;;;;;;12.52;7.15;;;20.70;99.90;;;;;;5013560;28;20045;-53
2022/03/31 08:03:18;;;;;;;15.25;7.85;;;20.70;99.90;;;;;;5013705;28;20026;-53
2022/03/31 08:05:45;;;;;;;15.57;8.82;;;20.80;99.90;;;;;;5013647;28;20032;-53
2022/03/31 08:08:11;;;;;;;11.80;7.25;;;20.80;99.90;;;;;;5013451;28;20501;-52
2022/03/31 08:10:37;;;;;;;12.55;7.20;;;20.80;99.90;;;;;;5013463;28;20077;-52
2022/03/31 08:13:03;;;;;;;11.38;7.70;;;20.80;99.90;;;;;;5012194;28;20069;-52
2022/03/31 08:15:29;;;;;;;18.17;8.90;;;20.80;99.90;;;;;;5013347;28;20095;-53
2022/03/31 08:17:55;;;;;;;12.13;7.50;;;20.80;99.90;;;;;;5013626;28;20022;-53
2022/03/31 08:20:21;;;;;;;11.95;7.05;;;20.80;99.90;;;;;;5013275;28;20030;-53
2022/03/31 08:22:47;;;;;;;10.38;7.28;;;20.80;99.90;;;;;;5013278;28;20101;-53
2022/03/31 08:25:14;;;;;;;9.40;7.43;;;20.80;99.90;;;;;;5013135;28;20489;-53
2022/03/31 08:27:40;;;;;;;15.45;7.57;;;20.80;99.90;;;;;;5012071;28;20071;-53
2022/03/31 08:30:13;;;;;;;11.43;7.47;;;20.70;99.90;;;;;;5013058;28;20064;-53
2022/03/31 08:32:39;;;;;;;12.98;7.80;;;20.70;99.90;;;;;;5012867;28;20033;-53
2022/03/31 08:35:07;;;;;;;10.85;7.28;;;20.80;99.90;;;;;;5012945;28;20392;-53
2022/03/31 08:37:33;;;;;;;;;;;20.70;99.90;;;;;;5013386;28;20156;-54
2022/03/31 08:39:59;;;;;;;11.43;6.93;;;20.80;99.90;;;;;;5013012;28;20324;-53
2022/03/31 08:42:25;;;;;;;10.75;6.63;;;20.80;99.90;;;;;;5013076;28;20022;-52
2022/03/31 08:44:52;;;;;;;11.20;7.45;;;20.70;99.90;;;;;;5011552;28;20072;-53
2022/03/31 08:47:19;;;;;;;11.30;6.88;;;20.80;99.90;;;;;;5011440;28;20033;-52
2022/03/31 08:49:46;;;;;;;;;;;20.80;99.90;;;;;;5013230;28;20034;-52
2022/03/31 08:52:12;;;;;;;11.52;7.35;;;20.80;99.90;;;;;;5012612;28;19905;-52
2022/03/31 08:54:39;;;;;;;10.75;6.90;;;20.80;99.90;;;;;;5012650;28;20117;-52
2022/03/31 08:57:05;;;;;;;8.98;6.43;;;20.80;99.90;;;;;;5012415;28;20517;-52
2022/03/31 08:59:31;;;;;;;10.70;7.35;;;20.80;99.90;;;;;;5012428;28;20117;-53
2022/03/31 09:01:58;;;;;;;12.15;7.50;;;20.80;99.90;;;;;;5012694;28;20033;-52
2022/03/31 09:04:25;;;;;;;11.57;7.18;;;20.80;99.90;;;;;;5012330;28;20026;-52
2022/03/31 09:07:07;;;;;;;10.77;6.65;;;20.80;99.90;;;;;;5012424;28;20437;-52
2022/03/31 09:09:44;;;;;;;12.00;7.03;;;20.80;99.90;;;;;;5012350;28;20030;-53
2022/03/31 09:12:10;;;;;;;10.82;7.15;;;20.80;99.90;;;;;;5012530;28;20038;-53
2022/03/31 09:14:36;;;;;;;11.35;7.00;;;20.80;99.90;;;;;;5010960;28;20041;-53
2022/03/31 09:17:13;;;;;;;9.95;7.00;;;20.80;99.90;;;;;;5012182;28;20022;-53
2022/03/31 09:19:38;;;;;;;10.93;7.38;;;20.80;99.90;;;;;;5012150;28;20014;-53
2022/03/31 09:22:05;;;;;;;11.98;7.63;;;20.90;99.90;;;;;;5012157;28;20025;-52
2022/03/31 09:24:31;;;;;;;12.02;7.32;;;20.80;99.90;;;;;;5012388;28;20030;-51
2022/03/31 09:26:58;;;;;;;13.57;7.93;;;20.80;99.90;;;;;;5012153;28;20037;-51
2022/03/31 09:29:26;;;;;;;10.07;7.07;;;20.80;99.90;;;;;;5010773;28;20528;-52
2022/03/31 09:31:53;;;;;;;;;;;20.80;99.90;;;;;;5011153;28;20038;-53
2022/03/31 09:34:19;;;;;;;11.93;7.70;;;20.80;99.90;;;;;;5011861;28;19919;-53
2022/03/31 09:36:52;;;;;;;12.15;8.63;;;20.80;99.90;;;;;;5011916;28;20096;-53
2022/03/31 09:39:20;;;;;;;13.90;8.82;;;20.80;99.90;;;;;;5011790;28;20382;-53
2022/03/31 09:41:48;;;;;;;14.98;9.57;;;20.90;99.90;;;;;;5011817;28;20030;-51
2022/03/31 09:44:16;;;;;;;12.52;8.35;;;20.80;99.90;;;;;;5011664;28;20084;-53
2022/03/31 09:46:43;;;;;;;12.48;8.27;;;20.80;99.90;;;;;;5011729;28;20018;-53
2022/03/31 09:49:12;;;;;;;12.52;8.93;;;20.90;99.90;;;;;;5011755;28;20489;-52
2022/03/31 09:51:38;;;;;;;15.43;8.93;;;20.80;99.90;;;;;;5011587;28;20030;-54
2022/03/31 09:54:04;;;;;;;14.10;9.57;;;20.80;99.90;;;;;;5011535;28;20064;-53
2022/03/31 09:56:38;;;;;;;17.35;9.85;;;20.80;99.90;;;;;;5010549;28;20389;-53
2022/03/31 09:59:07;;;;;;;16.02;8.93;;;20.90;99.90;;;;;;5011864;28;20336;-52
2022/03/31 10:01:33;;;;;;;13.63;8.95;;;20.90;99.90;;;;;;5011618;28;20116;-53
2022/03/31 10:04:00;;;;;;;15.20;9.23;;;20.90;99.90;;;;;;5010360;28;20026;-52
2022/03/31 10:06:26;;;;;;;15.23;9.02;;;20.90;99.90;;;;;;5011450;28;20129;-52
2022/03/31 10:08:53;;;;;;;15.82;8.77;;;20.80;99.90;;;;;;5011570;28;20057;-52
2022/03/31 10:11:21;;;;;;;16.75;9.70;;;20.90;99.90;;;;;;5011588;28;20076;-52
2022/03/31 10:14:05;;;;;;;16.67;9.15;;;20.90;99.90;;;;;;5011380;28;20025;-53
2022/03/31 10:17:06;;;;;;;14.60;8.55;;;20.80;99.90;;;;;;5011602;28;20030;-52
2022/03/31 10:19:37;;;;;;;12.07;8.57;;;20.90;99.90;;;;;;5007296;28;20067;-52
2022/03/31 10:25:03;;;;;;;13.23;7.43;;;20.90;99.90;;;;;;5011149;28;20029;-52
2022/03/31 10:27:34;;;;;;;12.32;7.45;;;20.90;99.90;;;;;;5011034;28;20439;-53
2022/03/31 10:30:11;;;;;;;12.15;7.18;;;20.90;99.90;;;;;;5011245;28;20033;-52
2022/03/31 10:32:37;;;;;;;11.05;7.45;;;20.90;99.90;;;;;;5011274;28;20022;-52
2022/03/31 10:35:04;;;;;;;13.45;7.25;;;20.90;99.90;;;;;;5011183;28;20424;-52
2022/03/31 10:37:39;;;;;;;10.60;6.53;;;20.90;99.90;;;;;;5011047;28;20106;-52
2022/03/31 10:40:08;;;;;;;11.95;6.28;;;20.90;99.90;;;;;;5011403;28;20034;-52
2022/03/31 10:42:34;;;;;;;10.55;6.82;;;21.00;99.90;;;;;;5011296;28;20105;-51
2022/03/31 10:45:09;;;;;;;11.95;7.78;;;20.90;99.90;;;;;;5011093;28;20018;-52
2022/03/31 10:47:37;;;;;;;12.55;7.07;;;20.90;99.90;;;;;;5011144;28;20128;-52
2022/03/31 10:50:04;;;;;;;14.77;7.15;;;20.90;99.90;;;;;;5010128;28;20539;-51
2022/03/31 10:52:32;;;;;;;;;;;20.90;99.90;;;;;;5015378;28;20469;-52
2022/03/31 10:55:14;;;;;;;12.95;7.53;;;20.90;99.90;;;;;;5014895;28;19913;-52
2022/03/31 10:57:44;;;;;;;11.40;7.38;;;20.90;99.90;;;;;;5014778;28;20049;-53
2022/03/31 11:00:14;;;;;;;12.70;7.18;;;20.90;99.90;;;;;;5014682;28;20084;-53
2022/03/31 11:02:46;;;;;;;12.88;7.20;;;20.90;99.90;;;;;;5014836;28;20124;-51
2022/03/31 11:05:12;;;;;;;9.98;6.72;;;20.90;99.90;;;;;;5014768;28;20029;-52
2022/03/31 11:07:38;;;;;;;10.40;6.90;;;20.80;99.90;;;;;;5014771;28;20109;-53
2022/03/31 11:10:11;;;;;;;11.35;5.75;;;20.80;99.90;;;;;;5014931;28;20506;-53
2022/03/31 11:12:38;;;;;;;11.90;6.13;;;20.80;99.90;;;;;;5014817;28;20034;-52
2022/03/31 11:15:07;;;;;;;11.20;6.53;;;20.80;99.90;;;;;;5014629;28;20038;-52
2022/03/31 11:17:33;;;;;;;11.13;5.70;;;20.80;99.90;;;;;;5014704;28;20346;-53
2022/03/31 11:20:05;;;;;;;8.55;5.40;;;20.80;99.90;;;;;;5014488;28;20544;-52
2022/03/31 11:22:30;;;;;;;11.77;5.57;;;20.80;99.90;;;;;;5014426;28;20469;-52
2022/03/31 11:25:10;;;;;;;9.75;4.60;;;20.80;99.90;;;;;;5014433;28;20080;-52
2022/03/31 11:27:38;;;;;;;13.45;6.00;;;20.80;99.90;;;;;;5014475;28;20474;-53
2022/03/31 11:30:10;;;;;;;8.90;5.25;;;20.80;99.90;;;;;;5014361;28;20050;-52
2022/03/31 11:32:36;;;;;;;9.00;5.15;;;20.80;99.90;;;;;;5014496;28;20032;-52
2022/03/31 11:35:04;;;;;;;8.18;4.78;;;20.80;99.90;;;;;;5014250;28;20129;-52
2022/03/31 11:37:30;;;;;;;11.35;4.53;;;20.80;99.90;;;;;;5014238;28;20481;-52
2022/03/31 11:39:56;;;;;;;8.48;5.13;;;20.90;99.90;;;;;;5014117;28;20354;-52
2022/03/31 11:42:22;;;;;;;6.80;4.25;;;20.80;99.90;;;;;;5013938;28;20045;-51
2022/03/31 11:44:47;;;;;;;10.35;5.05;;;20.80;99.90;;;;;;5014015;28;20060;-51
2022/03/31 11:47:21;;;;;;;10.57;5.07;;;20.80;99.90;;;;;;5014221;28;20402;-51
2022/03/31 11:49:58;;;;;;;8.73;4.80;;;20.80;99.90;;;;;;5013953;28;20469;-50
2022/03/31 11:52:33;;;;;;;8.27;5.13;;;20.80;99.90;;;;;;5012881;28;20112;-52
2022/03/31 11:55:00;;;;;;;9.15;5.00;;;20.80;99.90;;;;;;5013873;28;20052;-50
2022/03/31 11:57:27;;;;;;;10.60;5.57;;;20.80;99.90;;;;;;5013783;28;20026;-51
2022/03/31 11:59:54;;;;;;;9.15;5.28;;;20.80;99.90;;;;;;5013602;28;20096;-53
2022/03/31 12:02:21;;;;;;;8.30;5.17;;;20.80;99.90;;;;;;5012465;28;20029;-53
2022/03/31 12:04:48;;;;;;;8.25;5.75;;;20.80;99.90;;;;;;5013918;28;20028;-54
2022/03/31 12:07:16;;;;;;;9.43;4.97;;;20.80;99.90;;;;;;5013525;28;20088;-53
2022/03/31 12:09:43;;;;;;;7.03;4.65;;;20.90;99.90;;;;;;5013537;28;20033;-53
2022/03/31 12:12:13;;;;;;;7.95;4.85;;;20.90;99.90;;;;;;5013702;28;20022;-53
2022/03/31 12:14:40;;;;;;;7.55;4.80;;;20.90;99.90;;;;;;5013621;28;20534;-53
2022/03/31 12:17:07;;;;;;;8.30;4.88;;;20.90;99.90;;;;;;5013337;28;20033;-52
2022/03/31 12:19:41;;;;;;;6.70;3.80;;;20.90;99.90;;;;;;5013352;28;20099;-52
2022/03/31 12:22:07;;;;;;;11.55;5.35;;;20.90;99.90;;;;;;5013234;28;20286;-52
2022/03/31 12:24:44;;;;;;;9.10;4.88;;;20.90;99.90;;;;;;5013469;28;20029;-52
2022/03/31 12:27:15;;;;;;;9.68;5.57;;;20.90;99.90;;;;;;5013707;28;20037;-53
2022/03/31 12:29:41;;;;;;;9.15;4.63;;;21.00;99.90;;;;;;5013402;28;20030;-53
2022/03/31 12:32:10;;;;;;;8.18;4.78;;;21.00;99.90;;;;;;5013149;28;20059;-53
2022/03/31 12:34:55;;;;;;;9.52;4.60;;;21.00;99.90;;;;;;5012996;28;20083;-52
2022/03/31 12:37:32;;;;;;;8.25;5.55;;;21.10;99.90;;;;;;5013104;28;20448;-53
2022/03/31 12:39:58;;;;;;;11.00;4.85;;;21.10;99.90;;;;;;5012944;28;20030;-52
2022/03/31 12:42:25;;;;;;;8.15;4.93;;;21.10;99.90;;;;;;5013021;28;20029;-52